Wales, Michigan
Current Conditions -  °F | °C
As of 1:18 PM on Monday 26 Jan 2015 (Local Time) from KPHN Reporting Station
Clear Clear  
Wind Chill: -11°   Ceiling: Unl
Heat Index: -6°   Visibility: 10mi
Dew Point: -11°   Wind: 8mph
Humidity: 68%   Direction: 30°NNE
Pressure: 29.92"   Gusts: NA
Location:  42.9446°N, 82.6827°W
Report Text: KPHN 261818Z AUTO 03007KT 000V070 10SM CLR M06/M11 A2992 RMK AO2
Loading
Personal Weather Stations






























Interactive Weather Map New forecast layout! Learn more

10-Day Weather Forecast

Advertisements
Track Severe Weather on mobile